Coos Bay, Oregon
Current Conditions -  °F | °C
As of 5:55 AM on Monday 20 Oct 2014 (Local Time) from KOTH Reporting Station
Overcast Overcast  
Wind Chill: 57°   Ceiling: 2000
Heat Index: 57°   Visibility: 4mi
Dew Point: 57°   Wind: 3mph
Humidity: 100%   Direction: 160°SSE
Pressure: 29.78"   Gusts: NA
Location:  43.37°N, 124.21°W
Report Text: KOTH 201255Z 16003KT 4SM BKN020 OVC034 14/14 A2978 RMK AO1 P0008
Loading
Personal Weather Stations






























Interactive Weather Map
Tropical Storm Tracking
New forecast layout! Learn more

10-Day Weather Forecast

Advertisements
Track Severe Weather on mobile